sensor_id;sensor_type;location;lat;lon;timestamp;temperature;humidity
47174;DHT22;36730;49.036;9.094;2022-09-17T00:00:20;26.70;60.00
47174;DHT22;36730;49.036;9.094;2022-09-17T00:02:50;26.70;60.00
47174;DHT22;36730;49.036;9.094;2022-09-17T00:05:20;26.70;60.00
47174;DHT22;36730;49.036;9.094;2022-09-17T00:07:46;26.70;59.90
47174;DHT22;36730;49.036;9.094;2022-09-17T00:10:12;26.70;59.90
47174;DHT22;36730;49.036;9.094;2022-09-17T00:12:37;26.70;59.90
47174;DHT22;36730;49.036;9.094;2022-09-17T00:15:03;26.70;59.80
47174;DHT22;36730;49.036;9.094;2022-09-17T00:17:28;26.70;60.30
47174;DHT22;36730;49.036;9.094;2022-09-17T00:19:54;26.80;60.00
47174;DHT22;36730;49.036;9.094;2022-09-17T00:22:20;26.70;59.80
47174;DHT22;36730;49.036;9.094;2022-09-17T00:24:45;26.70;59.70
47174;DHT22;36730;49.036;9.094;2022-09-17T00:27:11;26.70;59.80
47174;DHT22;36730;49.036;9.094;2022-09-17T00:29:36;26.70;59.70
47174;DHT22;36730;49.036;9.094;2022-09-17T00:32:01;26.80;59.80
47174;DHT22;36730;49.036;9.094;2022-09-17T00:34:27;26.70;59.70
47174;DHT22;36730;49.036;9.094;2022-09-17T00:36:52;26.80;59.80
47174;DHT22;36730;49.036;9.094;2022-09-17T00:39:18;26.70;59.70
47174;DHT22;36730;49.036;9.094;2022-09-17T00:41:43;26.70;59.70
47174;DHT22;36730;49.036;9.094;2022-09-17T00:46:53;26.70;59.70
47174;DHT22;36730;49.036;9.094;2022-09-17T00:49:20;26.70;59.70
47174;DHT22;36730;49.036;9.094;2022-09-17T00:54:19;26.70;59.70
47174;DHT22;36730;49.036;9.094;2022-09-17T00:56:45;26.70;59.80
47174;DHT22;36730;49.036;9.094;2022-09-17T00:59:11;26.70;59.90
47174;DHT22;36730;49.036;9.094;2022-09-17T01:01:37;26.70;59.80
47174;DHT22;36730;49.036;9.094;2022-09-17T01:04:03;26.70;60.30
47174;DHT22;36730;49.036;9.094;2022-09-17T01:06:33;26.70;59.70
47174;DHT22;36730;49.036;9.094;2022-09-17T01:16:35;26.70;59.70
47174;DHT22;36730;49.036;9.094;2022-09-17T01:24:20;26.70;59.70
47174;DHT22;36730;49.036;9.094;2022-09-17T01:26:59;26.70;59.70
47174;DHT22;36730;49.036;9.094;2022-09-17T01:32:53;26.70;59.70
47174;DHT22;36730;49.036;9.094;2022-09-17T01:35:14;26.70;59.70
47174;DHT22;36730;49.036;9.094;2022-09-17T01:37:55;26.70;59.70
47174;DHT22;36730;49.036;9.094;2022-09-17T01:45:36;26.70;59.70
47174;DHT22;36730;49.036;9.094;2022-09-17T01:48:06;26.70;59.70
47174;DHT22;36730;49.036;9.094;2022-09-17T01:50:36;26.70;59.70
47174;DHT22;36730;49.036;9.094;2022-09-17T01:53:04;26.70;60.20
47174;DHT22;36730;49.036;9.094;2022-09-17T01:55:32;26.60;59.60
47174;DHT22;36730;49.036;9.094;2022-09-17T01:58:01;26.60;59.60
47174;DHT22;36730;49.036;9.094;2022-09-17T02:00:28;26.60;59.60
47174;DHT22;36730;49.036;9.094;2022-09-17T02:03:12;26.60;59.60
47174;DHT22;36730;49.036;9.094;2022-09-17T02:05:40;26.60;59.40
47174;DHT22;36730;49.036;9.094;2022-09-17T02:08:08;26.60;59.50
47174;DHT22;36730;49.036;9.094;2022-09-17T02:10:39;26.60;59.40
47174;DHT22;36730;49.036;9.094;2022-09-17T02:13:10;26.60;59.50
47174;DHT22;36730;49.036;9.094;2022-09-17T02:15:42;26.60;59.40
47174;DHT22;36730;49.036;9.094;2022-09-17T02:18:14;26.60;59.40
47174;DHT22;36730;49.036;9.094;2022-09-17T02:20:44;26.60;59.40
47174;DHT22;36730;49.036;9.094;2022-09-17T02:23:17;26.60;59.40
47174;DHT22;36730;49.036;9.094;2022-09-17T02:25:56;26.60;59.40
47174;DHT22;36730;49.036;9.094;2022-09-17T02:30:52;26.60;59.40
47174;DHT22;36730;49.036;9.094;2022-09-17T02:33:18;26.60;59.30
47174;DHT22;36730;49.036;9.094;2022-09-17T02:35:44;26.60;59.30
47174;DHT22;36730;49.036;9.094;2022-09-17T02:38:11;26.60;59.30
47174;DHT22;36730;49.036;9.094;2022-09-17T02:40:45;26.60;59.20
47174;DHT22;36730;49.036;9.094;2022-09-17T02:43:14;26.60;59.30
47174;DHT22;36730;49.036;9.094;2022-09-17T02:56:12;26.60;59.40
47174;DHT22;36730;49.036;9.094;2022-09-17T03:01:17;26.60;59.40
47174;DHT22;36730;49.036;9.094;2022-09-17T03:03:44;26.60;59.40
47174;DHT22;36730;49.036;9.094;2022-09-17T03:06:10;26.60;59.30
47174;DHT22;36730;49.036;9.094;2022-09-17T03:08:37;26.50;56.50
47174;DHT22;36730;49.036;9.094;2022-09-17T03:11:04;26.30;53.90
47174;DHT22;36730;49.036;9.094;2022-09-17T03:13:30;26.00;52.00
47174;DHT22;36730;49.036;9.094;2022-09-17T03:15:56;25.70;52.20
47174;DHT22;36730;49.036;9.094;2022-09-17T03:18:22;25.50;50.70
47174;DHT22;36730;49.036;9.094;2022-09-17T03:20:48;25.30;51.50
47174;DHT22;36730;49.036;9.094;2022-09-17T03:23:13;25.10;51.40
47174;DHT22;36730;49.036;9.094;2022-09-17T03:25:39;24.80;51.40
47174;DHT22;36730;49.036;9.094;2022-09-17T03:28:04;24.60;51.70
47174;DHT22;36730;49.036;9.094;2022-09-17T03:30:30;24.40;51.70
47174;DHT22;36730;49.036;9.094;2022-09-17T03:32:55;24.10;52.10
47174;DHT22;36730;49.036;9.094;2022-09-17T03:35:21;23.80;52.70
47174;DHT22;36730;49.036;9.094;2022-09-17T03:37:46;23.50;53.40
47174;DHT22;36730;49.036;9.094;2022-09-17T03:40:12;23.40;53.80
47174;DHT22;36730;49.036;9.094;2022-09-17T03:42:37;23.40;54.10
47174;DHT22;36730;49.036;9.094;2022-09-17T03:45:03;23.30;54.20
47174;DHT22;36730;49.036;9.094;2022-09-17T03:47:28;23.30;54.20
47174;DHT22;36730;49.036;9.094;2022-09-17T03:49:54;23.30;54.30
47174;DHT22;36730;49.036;9.094;2022-09-17T03:52:20;23.30;54.30
47174;DHT22;36730;49.036;9.094;2022-09-17T03:54:45;23.30;54.00
47174;DHT22;36730;49.036;9.094;2022-09-17T03:57:11;23.20;54.00
47174;DHT22;36730;49.036;9.094;2022-09-17T03:59:36;23.10;54.00
47174;DHT22;36730;49.036;9.094;2022-09-17T04:02:02;23.10;54.20
47174;DHT22;36730;49.036;9.094;2022-09-17T04:04:27;23.00;54.40
47174;DHT22;36730;49.036;9.094;2022-09-17T04:06:53;22.90;54.20
47174;DHT22;36730;49.036;9.094;2022-09-17T04:09:19;22.90;54.30
47174;DHT22;36730;49.036;9.094;2022-09-17T04:11:44;22.90;54.10
47174;DHT22;36730;49.036;9.094;2022-09-17T04:14:10;22.80;54.10
47174;DHT22;36730;49.036;9.094;2022-09-17T04:16:35;22.70;54.50
47174;DHT22;36730;49.036;9.094;2022-09-17T04:19:01;22.60;54.80
47174;DHT22;36730;49.036;9.094;2022-09-17T04:21:26;22.60;54.80
47174;DHT22;36730;49.036;9.094;2022-09-17T04:23:52;22.60;54.60
47174;DHT22;36730;49.036;9.094;2022-09-17T04:26:17;22.60;54.70
47174;DHT22;36730;49.036;9.094;2022-09-17T04:28:43;22.60;54.80
47174;DHT22;36730;49.036;9.094;2022-09-17T04:31:08;22.60;54.90
47174;DHT22;36730;49.036;9.094;2022-09-17T04:33:34;22.60;55.00
47174;DHT22;36730;49.036;9.094;2022-09-17T04:36:00;22.60;55.00
47174;DHT22;36730;49.036;9.094;2022-09-17T04:38:25;22.50;54.90
47174;DHT22;36730;49.036;9.094;2022-09-17T04:40:50;22.50;54.90
47174;DHT22;36730;49.036;9.094;2022-09-17T04:43:16;22.50;55.00
47174;DHT22;36730;49.036;9.094;2022-09-17T04:45:48;22.50;54.90
47174;DHT22;36730;49.036;9.094;2022-09-17T04:48:15;22.40;55.00
47174;DHT22;36730;49.036;9.094;2022-09-17T04:50:40;22.40;55.20
47174;DHT22;36730;49.036;9.094;2022-09-17T04:53:06;22.30;55.40
47174;DHT22;36730;49.036;9.094;2022-09-17T04:55:31;22.30;55.30
47174;DHT22;36730;49.036;9.094;2022-09-17T04:57:57;22.30;55.60
47174;DHT22;36730;49.036;9.094;2022-09-17T05:00:23;22.30;55.80
47174;DHT22;36730;49.036;9.094;2022-09-17T05:02:49;22.30;55.70
47174;DHT22;36730;49.036;9.094;2022-09-17T05:05:15;22.20;55.60
47174;DHT22;36730;49.036;9.094;2022-09-17T05:07:41;22.20;55.80
47174;DHT22;36730;49.036;9.094;2022-09-17T05:10:06;22.30;55.40
47174;DHT22;36730;49.036;9.094;2022-09-17T05:12:33;22.20;55.70
47174;DHT22;36730;49.036;9.094;2022-09-17T05:14:58;22.30;55.60
47174;DHT22;36730;49.036;9.094;2022-09-17T05:17:23;22.20;55.70
47174;DHT22;36730;49.036;9.094;2022-09-17T05:19:49;22.20;55.50
47174;DHT22;36730;49.036;9.094;2022-09-17T05:22:14;22.20;55.70
47174;DHT22;36730;49.036;9.094;2022-09-17T05:24:40;22.10;56.00
47174;DHT22;36730;49.036;9.094;2022-09-17T05:27:06;22.10;56.30
47174;DHT22;36730;49.036;9.094;2022-09-17T05:29:31;22.10;56.10
47174;DHT22;36730;49.036;9.094;2022-09-17T05:31:57;22.10;56.10
47174;DHT22;36730;49.036;9.094;2022-09-17T05:34:22;22.10;56.40
47174;DHT22;36730;49.036;9.094;2022-09-17T05:36:48;22.00;56.50
47174;DHT22;36730;49.036;9.094;2022-09-17T05:39:13;22.00;56.40
47174;DHT22;36730;49.036;9.094;2022-09-17T05:41:39;22.00;56.60
47174;DHT22;36730;49.036;9.094;2022-09-17T05:44:04;22.00;56.80
47174;DHT22;36730;49.036;9.094;2022-09-17T05:46:30;22.00;56.70
47174;DHT22;36730;49.036;9.094;2022-09-17T05:48:56;22.00;56.80
47174;DHT22;36730;49.036;9.094;2022-09-17T05:51:22;22.00;56.60
47174;DHT22;36730;49.036;9.094;2022-09-17T05:53:47;22.00;56.70
47174;DHT22;36730;49.036;9.094;2022-09-17T05:56:13;22.00;57.30
47174;DHT22;36730;49.036;9.094;2022-09-17T05:58:39;21.90;56.90
47174;DHT22;36730;49.036;9.094;2022-09-17T06:01:04;21.90;56.90
47174;DHT22;36730;49.036;9.094;2022-09-17T06:03:30;22.00;57.40
47174;DHT22;36730;49.036;9.094;2022-09-17T06:05:58;21.90;56.90
47174;DHT22;36730;49.036;9.094;2022-09-17T06:08:25;21.90;56.90
47174;DHT22;36730;49.036;9.094;2022-09-17T06:10:51;21.90;57.30
47174;DHT22;36730;49.036;9.094;2022-09-17T06:13:16;21.80;57.20
47174;DHT22;36730;49.036;9.094;2022-09-17T06:15:42;21.80;57.30
47174;DHT22;36730;49.036;9.094;2022-09-17T06:18:13;21.80;58.20
47174;DHT22;36730;49.036;9.094;2022-09-17T06:20:38;21.70;57.40
47174;DHT22;36730;49.036;9.094;2022-09-17T06:23:04;21.70;57.20
47174;DHT22;36730;49.036;9.094;2022-09-17T06:25:29;21.70;57.10
47174;DHT22;36730;49.036;9.094;2022-09-17T06:27:56;21.70;57.30
47174;DHT22;36730;49.036;9.094;2022-09-17T06:30:21;21.70;57.40
47174;DHT22;36730;49.036;9.094;2022-09-17T06:32:46;21.60;57.90
47174;DHT22;36730;49.036;9.094;2022-09-17T06:35:12;21.60;58.30
47174;DHT22;36730;49.036;9.094;2022-09-17T06:37:38;21.60;57.90
47174;DHT22;36730;49.036;9.094;2022-09-17T06:40:05;21.60;57.70
47174;DHT22;36730;49.036;9.094;2022-09-17T06:42:31;21.60;57.70
47174;DHT22;36730;49.036;9.094;2022-09-17T06:44:56;21.60;57.70
47174;DHT22;36730;49.036;9.094;2022-09-17T06:47:25;21.60;58.00
47174;DHT22;36730;49.036;9.094;2022-09-17T06:49:50;21.70;58.10
47174;DHT22;36730;49.036;9.094;2022-09-17T06:52:17;21.70;58.90
47174;DHT22;36730;49.036;9.094;2022-09-17T06:54:42;21.80;58.60
47174;DHT22;36730;49.036;9.094;2022-09-17T06:57:08;21.90;59.10
47174;DHT22;36730;49.036;9.094;2022-09-17T06:59:33;22.10;59.70
47174;DHT22;36730;49.036;9.094;2022-09-17T07:01:59;22.10;60.70
47174;DHT22;36730;49.036;9.094;2022-09-17T07:04:24;22.20;59.20
47174;DHT22;36730;49.036;9.094;2022-09-17T07:06:49;22.30;58.70
47174;DHT22;36730;49.036;9.094;2022-09-17T07:09:15;22.40;58.20
47174;DHT22;36730;49.036;9.094;2022-09-17T07:11:40;22.40;58.20
47174;DHT22;36730;49.036;9.094;2022-09-17T07:14:06;22.50;58.10
47174;DHT22;36730;49.036;9.094;2022-09-17T07:16:32;22.60;58.30
47174;DHT22;36730;49.036;9.094;2022-09-17T07:18:59;22.60;58.50
47174;DHT22;36730;49.036;9.094;2022-09-17T07:21:24;22.70;58.20
47174;DHT22;36730;49.036;9.094;2022-09-17T07:23:50;22.80;57.90
47174;DHT22;36730;49.036;9.094;2022-09-17T07:26:16;22.80;58.20
47174;DHT22;36730;49.036;9.094;2022-09-17T07:28:41;22.90;58.50
47174;DHT22;36730;49.036;9.094;2022-09-17T07:31:08;22.90;58.30
47174;DHT22;36730;49.036;9.094;2022-09-17T07:33:34;23.00;58.60
47174;DHT22;36730;49.036;9.094;2022-09-17T07:36:01;23.00;58.20
47174;DHT22;36730;49.036;9.094;2022-09-17T07:38:27;23.10;58.00
47174;DHT22;36730;49.036;9.094;2022-09-17T07:43:20;23.20;58.60
47174;DHT22;36730;49.036;9.094;2022-09-17T07:45:45;23.20;59.00
47174;DHT22;36730;49.036;9.094;2022-09-17T07:48:10;23.30;58.80
47174;DHT22;36730;49.036;9.094;2022-09-17T07:50:36;23.30;58.10
47174;DHT22;36730;49.036;9.094;2022-09-17T07:53:01;23.30;58.10
47174;DHT22;36730;49.036;9.094;2022-09-17T07:55:28;23.30;58.50
47174;DHT22;36730;49.036;9.094;2022-09-17T07:57:54;23.40;58.50
47174;DHT22;36730;49.036;9.094;2022-09-17T08:00:19;23.50;58.00
47174;DHT22;36730;49.036;9.094;2022-09-17T08:02:51;23.50;58.00
47174;DHT22;36730;49.036;9.094;2022-09-17T08:05:16;23.50;58.10
47174;DHT22;36730;49.036;9.094;2022-09-17T08:07:42;23.50;58.10
47174;DHT22;36730;49.036;9.094;2022-09-17T08:10:07;23.50;58.30
47174;DHT22;36730;49.036;9.094;2022-09-17T08:12:33;23.60;57.90
47174;DHT22;36730;49.036;9.094;2022-09-17T08:14:58;23.60;57.80
47174;DHT22;36730;49.036;9.094;2022-09-17T08:17:24;23.60;57.80
47174;DHT22;36730;49.036;9.094;2022-09-17T08:19:49;23.70;57.70
47174;DHT22;36730;49.036;9.094;2022-09-17T08:22:15;23.70;57.50
47174;DHT22;36730;49.036;9.094;2022-09-17T08:24:41;23.70;57.60
47174;DHT22;36730;49.036;9.094;2022-09-17T08:27:06;23.70;57.70
47174;DHT22;36730;49.036;9.094;2022-09-17T08:29:32;23.80;57.40
47174;DHT22;36730;49.036;9.094;2022-09-17T08:31:57;23.80;57.40
47174;DHT22;36730;49.036;9.094;2022-09-17T08:34:23;23.80;57.40
47174;DHT22;36730;49.036;9.094;2022-09-17T08:36:49;23.80;57.50
47174;DHT22;36730;49.036;9.094;2022-09-17T08:39:14;23.90;57.80
47174;DHT22;36730;49.036;9.094;2022-09-17T08:41:48;23.90;57.70
47174;DHT22;36730;49.036;9.094;2022-09-17T08:46:50;24.00;57.60
47174;DHT22;36730;49.036;9.094;2022-09-17T08:49:30;24.00;58.30
47174;DHT22;36730;49.036;9.094;2022-09-17T08:59:46;24.10;57.70
47174;DHT22;36730;49.036;9.094;2022-09-17T09:02:22;24.10;57.70
47174;DHT22;36730;49.036;9.094;2022-09-17T09:07:22;24.20;57.70
47174;DHT22;36730;49.036;9.094;2022-09-17T09:09:52;24.20;57.80
47174;DHT22;36730;49.036;9.094;2022-09-17T09:12:22;24.20;57.60
47174;DHT22;36730;49.036;9.094;2022-09-17T09:17:20;24.30;57.70
47174;DHT22;36730;49.036;9.094;2022-09-17T09:19:46;24.40;57.50
47174;DHT22;36730;49.036;9.094;2022-09-17T09:25:17;24.40;57.60
47174;DHT22;36730;49.036;9.094;2022-09-17T09:30:18;24.50;57.10
47174;DHT22;36730;49.036;9.094;2022-09-17T09:35:30;24.50;57.30
47174;DHT22;36730;49.036;9.094;2022-09-17T09:42:58;24.70;57.00
47174;DHT22;36730;49.036;9.094;2022-09-17T09:45:40;24.70;56.90
47174;DHT22;36730;49.036;9.094;2022-09-17T09:53:35;24.80;55.90
47174;DHT22;36730;49.036;9.094;2022-09-17T09:56:05;24.70;56.20
47174;DHT22;36730;49.036;9.094;2022-09-17T10:00:59;24.70;56.50
47174;DHT22;36730;49.036;9.094;2022-09-17T10:03:26;24.70;56.00
47174;DHT22;36730;49.036;9.094;2022-09-17T10:08:18;24.70;55.90
47174;DHT22;36730;49.036;9.094;2022-09-17T10:10:57;24.70;55.80
47174;DHT22;36730;49.036;9.094;2022-09-17T10:13:23;24.70;55.60
47174;DHT22;36730;49.036;9.094;2022-09-17T10:15:49;24.70;55.30
47174;DHT22;36730;49.036;9.094;2022-09-17T10:18:15;24.70;55.10
47174;DHT22;36730;49.036;9.094;2022-09-17T10:20:48;24.70;54.70
47174;DHT22;36730;49.036;9.094;2022-09-17T10:23:14;24.60;55.00
47174;DHT22;36730;49.036;9.094;2022-09-17T10:25:41;24.50;53.60
47174;DHT22;36730;49.036;9.094;2022-09-17T10:28:20;24.30;53.50
47174;DHT22;36730;49.036;9.094;2022-09-17T10:31:21;24.20;53.70
47174;DHT22;36730;49.036;9.094;2022-09-17T10:36:16;24.00;54.70
47174;DHT22;36730;49.036;9.094;2022-09-17T10:38:46;23.90;54.20
47174;DHT22;36730;49.036;9.094;2022-09-17T10:41:19;23.70;54.80
47174;DHT22;36730;49.036;9.094;2022-09-17T10:43:46;23.60;54.80
47174;DHT22;36730;49.036;9.094;2022-09-17T10:46:16;23.60;55.30
47174;DHT22;36730;49.036;9.094;2022-09-17T10:48:43;23.60;55.90
47174;DHT22;36730;49.036;9.094;2022-09-17T10:51:09;23.60;56.10
47174;DHT22;36730;49.036;9.094;2022-09-17T10:54:18;23.70;55.90
47174;DHT22;36730;49.036;9.094;2022-09-17T10:56:28;23.80;55.90
47174;DHT22;36730;49.036;9.094;2022-09-17T10:59:01;23.90;55.60
47174;DHT22;36730;49.036;9.094;2022-09-17T11:01:36;24.00;55.50
47174;DHT22;36730;49.036;9.094;2022-09-17T11:04:09;24.10;55.30
47174;DHT22;36730;49.036;9.094;2022-09-17T11:12:11;24.20;54.90
47174;DHT22;36730;49.036;9.094;2022-09-17T11:24:48;24.40;55.10
47174;DHT22;36730;49.036;9.094;2022-09-17T11:29:57;24.40;55.40
47174;DHT22;36730;49.036;9.094;2022-09-17T11:35:19;24.60;55.70
47174;DHT22;36730;49.036;9.094;2022-09-17T11:37:51;24.70;55.90
47174;DHT22;36730;49.036;9.094;2022-09-17T11:40:54;24.80;55.80
47174;DHT22;36730;49.036;9.094;2022-09-17T11:46:00;24.80;56.30
47174;DHT22;36730;49.036;9.094;2022-09-17T11:48:38;24.90;56.30
47174;DHT22;36730;49.036;9.094;2022-09-17T11:56:20;25.10;56.00
47174;DHT22;36730;49.036;9.094;2022-09-17T11:58:58;25.10;55.80
47174;DHT22;36730;49.036;9.094;2022-09-17T12:01:30;25.20;55.80
47174;DHT22;36730;49.036;9.094;2022-09-17T12:06:59;25.30;55.60
47174;DHT22;36730;49.036;9.094;2022-09-17T12:09:19;25.30;55.50
47174;DHT22;36730;49.036;9.094;2022-09-17T12:11:47;25.30;55.40
47174;DHT22;36730;49.036;9.094;2022-09-17T12:14:22;25.30;55.30
47174;DHT22;36730;49.036;9.094;2022-09-17T12:16:49;25.40;55.10
47174;DHT22;36730;49.036;9.094;2022-09-17T12:21:46;25.40;56.00
47174;DHT22;36730;49.036;9.094;2022-09-17T12:29:19;25.40;55.10
47174;DHT22;36730;49.036;9.094;2022-09-17T12:31:51;25.40;55.40
47174;DHT22;36730;49.036;9.094;2022-09-17T12:34:27;25.40;55.40
47174;DHT22;36730;49.036;9.094;2022-09-17T12:52:43;25.40;55.50
47174;DHT22;36730;49.036;9.094;2022-09-17T13:00:07;25.40;54.80
47174;DHT22;36730;49.036;9.094;2022-09-17T13:05:03;25.50;55.00
47174;DHT22;36730;49.036;9.094;2022-09-17T13:07:47;25.50;54.80
47174;DHT22;36730;49.036;9.094;2022-09-17T13:10:24;25.60;54.80
47174;DHT22;36730;49.036;9.094;2022-09-17T13:15:29;25.70;54.70
47174;DHT22;36730;49.036;9.094;2022-09-17T13:20:29;25.60;53.80
47174;DHT22;36730;49.036;9.094;2022-09-17T13:22:56;25.70;54.20
47174;DHT22;36730;49.036;9.094;2022-09-17T13:25:22;25.60;53.10
47174;DHT22;36730;49.036;9.094;2022-09-17T13:27:49;25.60;53.40
47174;DHT22;36730;49.036;9.094;2022-09-17T13:30:16;25.60;53.60
47174;DHT22;36730;49.036;9.094;2022-09-17T13:32:43;25.60;53.60
47174;DHT22;36730;49.036;9.094;2022-09-17T13:37:34;25.60;52.60
47174;DHT22;36730;49.036;9.094;2022-09-17T13:40:02;25.60;52.60
47174;DHT22;36730;49.036;9.094;2022-09-17T13:42:41;25.70;52.70
47174;DHT22;36730;49.036;9.094;2022-09-17T13:45:09;25.60;52.10
47174;DHT22;36730;49.036;9.094;2022-09-17T13:47:38;25.70;52.50
47174;DHT22;36730;49.036;9.094;2022-09-17T13:50:08;25.60;52.60
47174;DHT22;36730;49.036;9.094;2022-09-17T13:52:47;25.70;52.30
47174;DHT22;36730;49.036;9.094;2022-09-17T13:57:58;25.50;51.20
47174;DHT22;36730;49.036;9.094;2022-09-17T14:05:52;25.40;52.10
47174;DHT22;36730;49.036;9.094;2022-09-17T14:08:23;25.50;52.00
47174;DHT22;36730;49.036;9.094;2022-09-17T14:10:52;25.50;51.80
47174;DHT22;36730;49.036;9.094;2022-09-17T14:15:59;25.60;51.80
47174;DHT22;36730;49.036;9.094;2022-09-17T14:23:45;25.60;52.00
47174;DHT22;36730;49.036;9.094;2022-09-17T14:26:22;25.70;51.90
47174;DHT22;36730;49.036;9.094;2022-09-17T14:28:54;25.70;51.90
47174;DHT22;36730;49.036;9.094;2022-09-17T14:31:25;25.70;51.90
47174;DHT22;36730;49.036;9.094;2022-09-17T14:33:51;25.80;51.90
47174;DHT22;36730;49.036;9.094;2022-09-17T14:36:18;25.80;51.90
47174;DHT22;36730;49.036;9.094;2022-09-17T14:38:45;25.80;51.90
47174;DHT22;36730;49.036;9.094;2022-09-17T14:43:43;25.80;51.70
47174;DHT22;36730;49.036;9.094;2022-09-17T14:46:11;25.80;52.00
47174;DHT22;36730;49.036;9.094;2022-09-17T14:48:39;25.80;52.00
47174;DHT22;36730;49.036;9.094;2022-09-17T14:53:49;25.80;51.70
47174;DHT22;36730;49.036;9.094;2022-09-17T14:56:53;25.80;51.60
47174;DHT22;36730;49.036;9.094;2022-09-17T14:59:21;25.80;51.70
47174;DHT22;36730;49.036;9.094;2022-09-17T15:01:47;25.80;51.60
47174;DHT22;36730;49.036;9.094;2022-09-17T15:06:42;25.90;51.80
47174;DHT22;36730;49.036;9.094;2022-09-17T15:09:14;25.90;51.60
47174;DHT22;36730;49.036;9.094;2022-09-17T15:11:41;25.90;52.10
47174;DHT22;36730;49.036;9.094;2022-09-17T15:14:11;25.90;51.60
47174;DHT22;36730;49.036;9.094;2022-09-17T15:16:43;25.90;51.60
47174;DHT22;36730;49.036;9.094;2022-09-17T15:19:11;25.90;51.50
47174;DHT22;36730;49.036;9.094;2022-09-17T15:21:39;25.80;51.10
47174;DHT22;36730;49.036;9.094;2022-09-17T15:26:51;25.90;51.10
47174;DHT22;36730;49.036;9.094;2022-09-17T15:29:23;25.90;50.90
47174;DHT22;36730;49.036;9.094;2022-09-17T15:31:50;25.90;51.00
47174;DHT22;36730;49.036;9.094;2022-09-17T15:34:16;25.90;51.10
47174;DHT22;36730;49.036;9.094;2022-09-17T15:37:01;25.90;51.00
47174;DHT22;36730;49.036;9.094;2022-09-17T15:39:28;25.90;50.90
47174;DHT22;36730;49.036;9.094;2022-09-17T15:41:57;25.90;50.70
47174;DHT22;36730;49.036;9.094;2022-09-17T15:44:23;25.90;50.80
47174;DHT22;36730;49.036;9.094;2022-09-17T15:46:50;25.90;50.70
47174;DHT22;36730;49.036;9.094;2022-09-17T15:49:26;25.90;50.70
47174;DHT22;36730;49.036;9.094;2022-09-17T15:51:52;25.90;50.60
47174;DHT22;36730;49.036;9.094;2022-09-17T15:54:28;25.90;50.60
47174;DHT22;36730;49.036;9.094;2022-09-17T15:56:54;26.00;50.50
47174;DHT22;36730;49.036;9.094;2022-09-17T15:59:24;25.90;50.50
47174;DHT22;36730;49.036;9.094;2022-09-17T16:01:51;25.90;50.10
47174;DHT22;36730;49.036;9.094;2022-09-17T16:04:24;25.80;50.40
47174;DHT22;36730;49.036;9.094;2022-09-17T16:06:54;25.80;50.40
47174;DHT22;36730;49.036;9.094;2022-09-17T16:12:00;25.80;50.60
47174;DHT22;36730;49.036;9.094;2022-09-17T16:14:26;25.80;50.80
47174;DHT22;36730;49.036;9.094;2022-09-17T16:16:51;25.80;50.90
47174;DHT22;36730;49.036;9.094;2022-09-17T16:19:19;25.80;50.90
47174;DHT22;36730;49.036;9.094;2022-09-17T16:21:44;25.80;50.90
47174;DHT22;36730;49.036;9.094;2022-09-17T16:24:10;25.90;51.00
47174;DHT22;36730;49.036;9.094;2022-09-17T16:26:35;25.90;51.10
47174;DHT22;36730;49.036;9.094;2022-09-17T16:29:03;25.90;51.20
47174;DHT22;36730;49.036;9.094;2022-09-17T16:31:29;25.90;51.20
47174;DHT22;36730;49.036;9.094;2022-09-17T16:33:54;25.90;51.40
47174;DHT22;36730;49.036;9.094;2022-09-17T16:36:20;25.90;51.40
47174;DHT22;36730;49.036;9.094;2022-09-17T16:38:46;26.00;51.50
47174;DHT22;36730;49.036;9.094;2022-09-17T16:41:11;26.00;51.80
47174;DHT22;36730;49.036;9.094;2022-09-17T16:43:37;26.00;52.10
47174;DHT22;36730;49.036;9.094;2022-09-17T16:46:05;25.90;51.80
47174;DHT22;36730;49.036;9.094;2022-09-17T16:48:31;26.00;52.10
47174;DHT22;36730;49.036;9.094;2022-09-17T16:50:57;26.00;52.10
47174;DHT22;36730;49.036;9.094;2022-09-17T16:53:22;25.90;52.00
47174;DHT22;36730;49.036;9.094;2022-09-17T16:55:48;26.00;52.00
47174;DHT22;36730;49.036;9.094;2022-09-17T16:58:13;26.00;52.00
47174;DHT22;36730;49.036;9.094;2022-09-17T17:00:41;26.00;51.90
47174;DHT22;36730;49.036;9.094;2022-09-17T17:03:06;26.00;52.00
47174;DHT22;36730;49.036;9.094;2022-09-17T17:05:34;26.00;52.10
47174;DHT22;36730;49.036;9.094;2022-09-17T17:08:00;26.00;52.10
47174;DHT22;36730;49.036;9.094;2022-09-17T17:10:25;26.00;52.20
47174;DHT22;36730;49.036;9.094;2022-09-17T17:12:51;26.00;52.50
47174;DHT22;36730;49.036;9.094;2022-09-17T17:15:16;26.00;52.50
47174;DHT22;36730;49.036;9.094;2022-09-17T17:17:43;26.00;52.50
47174;DHT22;36730;49.036;9.094;2022-09-17T17:20:08;26.00;52.50
47174;DHT22;36730;49.036;9.094;2022-09-17T17:22:35;26.00;52.80
47174;DHT22;36730;49.036;9.094;2022-09-17T17:25:01;26.00;53.10
47174;DHT22;36730;49.036;9.094;2022-09-17T17:27:27;26.00;53.40
47174;DHT22;36730;49.036;9.094;2022-09-17T17:29:53;26.00;53.20
47174;DHT22;36730;49.036;9.094;2022-09-17T17:32:18;26.00;53.30
47174;DHT22;36730;49.036;9.094;2022-09-17T17:34:44;26.00;53.40
47174;DHT22;36730;49.036;9.094;2022-09-17T17:37:09;26.00;53.20
47174;DHT22;36730;49.036;9.094;2022-09-17T17:39:36;26.00;53.20
47174;DHT22;36730;49.036;9.094;2022-09-17T17:42:01;26.00;53.50
47174;DHT22;36730;49.036;9.094;2022-09-17T17:44:27;26.00;53.40
47174;DHT22;36730;49.036;9.094;2022-09-17T17:46:52;26.00;53.40
47174;DHT22;36730;49.036;9.094;2022-09-17T17:49:18;26.00;53.40
47174;DHT22;36730;49.036;9.094;2022-09-17T17:51:43;26.00;53.40
47174;DHT22;36730;49.036;9.094;2022-09-17T17:54:09;26.10;53.50
47174;DHT22;36730;49.036;9.094;2022-09-17T17:56:34;26.00;53.80
47174;DHT22;36730;49.036;9.094;2022-09-17T17:59:00;26.00;53.50
47174;DHT22;36730;49.036;9.094;2022-09-17T18:01:26;26.00;53.70
47174;DHT22;36730;49.036;9.094;2022-09-17T18:03:56;26.00;53.80
47174;DHT22;36730;49.036;9.094;2022-09-17T18:06:21;26.00;54.20
47174;DHT22;36730;49.036;9.094;2022-09-17T18:08:47;26.00;54.40
47174;DHT22;36730;49.036;9.094;2022-09-17T18:11:12;26.00;54.70
47174;DHT22;36730;49.036;9.094;2022-09-17T18:13:38;26.00;54.50
47174;DHT22;36730;49.036;9.094;2022-09-17T18:16:04;26.00;54.30
47174;DHT22;36730;49.036;9.094;2022-09-17T18:18:31;26.00;54.20
47174;DHT22;36730;49.036;9.094;2022-09-17T18:21:01;26.00;54.40
47174;DHT22;36730;49.036;9.094;2022-09-17T18:23:27;26.00;54.30
47174;DHT22;36730;49.036;9.094;2022-09-17T18:25:56;26.10;54.40
47174;DHT22;36730;49.036;9.094;2022-09-17T18:28:22;26.10;54.60
47174;DHT22;36730;49.036;9.094;2022-09-17T18:30:48;26.00;54.60
47174;DHT22;36730;49.036;9.094;2022-09-17T18:33:20;26.10;54.70
47174;DHT22;36730;49.036;9.094;2022-09-17T18:35:46;26.00;54.60
47174;DHT22;36730;49.036;9.094;2022-09-17T18:38:12;26.10;54.80